Monday, September 1, 2014, 2:35 PM EDT

KTHV, York Airport

Location: Spring Grove, PA, United States Lat: 39.917
Local Time: 2:35 PM EDT (18:35 GMT) Lon: -76.883
Time Zone: US/Eastern Elev: 478 ft

Show me the last for .
Show Decoded

2014-09-01 13:53 METAR KTHV 011753Z AUTO 31005KT 10SM SCT070 BKN085 28/23 A2999 RMK AO2 RAB04E15
                 SLP154 P0000 60000 T02830228 10283 20228 56013 =
2014-09-01 12:53 METAR KTHV 011653Z AUTO 00000KT 10SM SCT029 BKN044 28/22 A3000 RMK AO2 SLP157
                 T02780217 =
2014-09-01 11:53 METAR KTHV 011553Z AUTO 00000KT 10SM FEW022 BKN042 BKN070 28/22 A3002 RMK AO2
                 SLP163 T02780222 =
2014-09-01 10:53 METAR KTHV 011453Z AUTO 00000KT 10SM SCT041 BKN050 OVC070 26/22 A3003 RMK AO2
                 SLP167 T02560222 58002 =
2014-09-01 09:53 METAR KTHV 011353Z AUTO 00000KT 10SM SCT038 BKN048 OVC060 24/22 A3003 RMK AO2
                 SLP168 T02440222 =
2014-09-01 08:53 METAR KTHV 011253Z AUTO 00000KT 10SM FEW050 OVC065 23/22 A3003 RMK AO2 SLP168
                 T02330217 =
2014-09-01 07:53 METAR KTHV 011153Z AUTO 00000KT 10SM BKN065 23/22 A3003 RMK AO2 SLP169 70037
                 T02280217 10228 20200 51004 =
2014-09-01 06:53 METAR KTHV 011053Z AUTO 00000KT 6SM BR FEW050 20/19 A3003 RMK AO2 SLP167
                 T02000194 =
2014-09-01 06:45 METAR KTHV 011045Z AUTO 00000KT 7SM FEW050 21/20 A3003 RMK AO2 T02060200 =
2014-09-01 06:38 METAR KTHV 011038Z AUTO 36003KT 2 1/2SM BR FEW050 21/20 A3003 RMK AO2 T02060200
                 =
2014-09-01 06:36 METAR KTHV 011036Z AUTO 00000KT 1 3/4SM BR FEW050 21/20 A3003 RMK AO2 T02060200
                 =
2014-09-01 06:29 METAR KTHV 011029Z AUTO 00000KT 2SM BR FEW050 20/19 A3003 RMK AO2 VIS 3/4V5
                 T02000194 =
2014-09-01 05:53 METAR KTHV 010953Z AUTO 00000KT 5SM BR BKN050 21/21 A3003 RMK AO2 SLP166
                 T02060206 =
2014-09-01 05:42 METAR KTHV 010942Z AUTO 00000KT 4SM BR BKN050 21/21 A3003 RMK AO2 T02110206 =
2014-09-01 05:29 METAR KTHV 010929Z AUTO 00000KT 2 1/2SM BR BKN055 21/20 A3003 RMK AO2 VIS 1
                 1/2V4 T02060200 =
2014-09-01 04:53 METAR KTHV 010853Z AUTO 00000KT 5SM BR SCT055 21/21 A3002 RMK AO2 SLP164
                 T02110206 53002 =
2014-09-01 03:53 METAR KTHV 010753Z AUTO 00000KT 6SM BR OVC055 22/21 A3001 RMK AO2 SLP162
                 T02170206 =
2014-09-01 02:53 METAR KTHV 010653Z AUTO 00000KT 7SM CLR 21/21 A3002 RMK AO2 SLP164 T02110206 =
2014-09-01 01:53 METAR KTHV 010553Z AUTO 00000KT 8SM SCT042 22/21 A3002 RMK AO2 SLP162 60003
                 T02170206 10250 20211 58004 =
2014-09-01 00:53 METAR KTHV 010453Z AUTO 00000KT 7SM FEW065 22/21 A3002 RMK AO2 SLP164 T02170211
                 403110217 =
2014-08-31 23:53 METAR KTHV 010353Z AUTO 00000KT 8SM BKN060 22/21 A3003 RMK AO2 SLP167 T02170211
                 =
2014-08-31 22:53 METAR KTHV 010253Z AUTO 00000KT 9SM FEW110 22/22 A3003 RMK AO2 SLP166 60003
                 T02220217 50004 =
2014-08-31 21:53 METAR KTHV 010153Z AUTO 34005KT 10SM FEW060 BKN075 23/22 A3004 RMK AO2 RAB08E20
                 SLP170 P0003 T02280217 =
2014-08-31 20:53 METAR KTHV 010053Z AUTO 20004KT 10SM BKN075 OVC090 24/22 A3002 RMK AO2 SLP165
                 T02390217 =
2014-08-31 19:53 METAR KTHV 312353Z AUTO 00000KT 10SM OVC095 24/22 A3002 RMK AO2 SLP162 60034
                 T02440217 10311 20228 51009 =
2014-08-31 18:53 METAR KTHV 312253Z AUTO 27003KT 10SM FEW120 26/22 A3001 RMK AO2 SLP160 T02610217
                 =
2014-08-31 16:53 METAR KTHV 312053Z AUTO VRB04KT 10SM CLR 29/23 A2999 RMK AO2 LTG DSNT SE SLP152
                 60034 T02890228 56014 =
2014-08-31 15:53 METAR KTHV 311953Z AUTO 20006KT 10SM FEW048 27/23 A3001 RMK AO2 PK WND
                 21028/1914 LTG DSNT SW RAB1856E31 SLP159 P0034 T02670233 =
2014-08-31 15:35 METAR KTHV 311935Z AUTO 19008G16KT 10SM FEW010 BKN050 BKN065 25/22 A3001 RMK AO2
                 PK WND 21028/1914 RAB1856E31 P0034 T02500222 =
2014-08-31 15:28 METAR KTHV 311928Z AUTO 19008G16KT 160V220 1 3/4SM -RA BR FEW010 SCT041 BKN050
                 24/22 A3002 RMK AO2 PK WND 21028/1914 RAB1856 P0034 T02390217 =
2014-08-31 15:16 METAR KTHV 311916Z AUTO 19016G28KT 3/4SM RA FEW015 BKN041 OVC080 26/22 A3003 RMK
                 AO2 PK WND 21028/1914 RAB1856 PRESRR P0023 T02610222 =
2014-08-31 14:53 METAR KTHV 311853Z AUTO 22009G15KT 10SM SCT046 BKN065 BKN080 29/21 A3000 RMK AO2
                 SLP157 T02940211 =

Support USWX by starting your Amazon purchase here.